Tuxedo, New York
Current Conditions -  °F | °C
As of 5:53 AM on Sunday 23 Nov 2014 (Local Time) from KFWN Reporting Station
Overcast Overcast  
Wind Chill:   Ceiling: 8500
Heat Index:   Visibility: 10mi
Dew Point: -6°   Wind: 3mph
Humidity: 51%   Direction: 200°SSW
Pressure: 30.16"   Gusts: NA
Location:  41.1969°N, 74.224°W
Report Text: KFWN 231053Z AUTO 20003KT 10SM BKN085 OVC120 03/M06 A3016 RMK AO2 SLP215 T00331061
Loading
Personal Weather Stations






























Interactive Weather Map New forecast layout! Learn more

10-Day Weather Forecast

Advertisements
Track Severe Weather on mobile